Airfield :







YOU CAN JOIN US ON...

 
LOGIN :

Register | Disclaimer

   EN    FR    IT 

 









Legend :    VFR   Marginal VFR   IFR   Intensive IFR   Very Intensive IFR
Visi :
Ceiling :
>= 8 km
>= 3000ft
5 to 8 km
1000 to 3000 ft
1500m to 5 km
500 to 1000 ft
800 to 1500m
200 to 500 ft
< 800m
< 200 ft
Symbols :   Thunderstorms  Fog  Heavy snow  Heavy precipitations  Wind > 20 kt






- Airport Elevation : 489 ft


KHUL - Houlton International

CURRENT METAR :
  • 250653Z AUTO 00000KT 8SM -RA BKN110 14/13 A2966 RMK AO2 RAB42 SLP043 P0000 T01390133

EXPIRED METARs :
  • 250553Z AUTO 00000KT 10SM OVC100 14/13 A2965 RMK AO2 SLP040 T01440133 10183 20133 55005
  • 250453Z AUTO 00000KT 9SM FEW060 OVC095 14/13 A2964 RMK AO2 SLP039 T01390133 401940133
  • 250353Z AUTO 00000KT 10SM SCT055 OVC090 15/14 A2966 RMK AO2 SLP043 T01500139
  • 250253Z AUTO 07003KT 10SM SCT110 14/13 A2966 RMK AO2 SLP045 T01440133 53015

TAF KHUL
Valid from the 25 at 06:00 until the 26 at 06:00 UTC


250529Z 2506/2606 VRB02KT P6SM BKN100
FM250800 01004KT 2SM BR BKN080
FM251100 01005KT P6SM SKC
KZBW FIR / North America



MET'MAP, your aeronautical weather chart ! - Copyright ORBIFLY December 2007 - Disclaimer

ORBIFLY MET'MAP TEAM :

Programming & Development : Alexandra Zaïnal
Original concept : Baudouin d'Aumeries
Technical & hardware support : Manuel Goepfert
Assistance : Marc-Olivier Méhu




SOURCES & CREDITS :

   NOAA